sensor_id;sensor_type;location;lat;lon;timestamp;P1;durP1;ratioP1;P2;durP2;ratioP2
23434;SDS011;11890;45.380;11.028;2022-10-16T00:01:27;33.08;;;16.73;;
23434;SDS011;11890;45.380;11.028;2022-10-16T00:03:57;40.40;;;17.40;;
23434;SDS011;11890;45.380;11.028;2022-10-16T00:06:26;35.63;;;17.48;;
23434;SDS011;11890;45.380;11.028;2022-10-16T00:08:54;35.30;;;16.88;;
23434;SDS011;11890;45.380;11.028;2022-10-16T00:11:26;37.22;;;16.60;;
23434;SDS011;11890;45.380;11.028;2022-10-16T00:16:23;38.00;;;17.27;;
23434;SDS011;11890;45.380;11.028;2022-10-16T00:18:51;34.17;;;17.00;;
23434;SDS011;11890;45.380;11.028;2022-10-16T00:21:20;37.53;;;17.90;;
23434;SDS011;11890;45.380;11.028;2022-10-16T00:23:50;39.97;;;18.73;;
23434;SDS011;11890;45.380;11.028;2022-10-16T00:26:26;40.20;;;17.35;;
23434;SDS011;11890;45.380;11.028;2022-10-16T00:28:55;36.95;;;18.10;;
23434;SDS011;11890;45.380;11.028;2022-10-16T00:31:23;37.78;;;17.77;;
23434;SDS011;11890;45.380;11.028;2022-10-16T00:33:51;37.10;;;18.17;;
23434;SDS011;11890;45.380;11.028;2022-10-16T00:36:22;31.15;;;16.75;;
23434;SDS011;11890;45.380;11.028;2022-10-16T00:38:52;44.40;;;20.25;;
23434;SDS011;11890;45.380;11.028;2022-10-16T00:41:22;35.95;;;16.85;;
23434;SDS011;11890;45.380;11.028;2022-10-16T00:46:20;39.28;;;17.80;;
23434;SDS011;11890;45.380;11.028;2022-10-16T00:48:50;35.40;;;16.38;;
23434;SDS011;11890;45.380;11.028;2022-10-16T00:51:35;35.22;;;16.10;;
23434;SDS011;11890;45.380;11.028;2022-10-16T00:54:11;39.90;;;17.25;;
23434;SDS011;11890;45.380;11.028;2022-10-16T00:56:41;37.67;;;18.70;;
23434;SDS011;11890;45.380;11.028;2022-10-16T00:59:11;38.70;;;17.50;;
23434;SDS011;11890;45.380;11.028;2022-10-16T01:01:42;35.03;;;17.80;;
23434;SDS011;11890;45.380;11.028;2022-10-16T01:04:10;34.90;;;18.08;;
23434;SDS011;11890;45.380;11.028;2022-10-16T01:09:24;38.00;;;17.38;;
23434;SDS011;11890;45.380;11.028;2022-10-16T01:14:37;36.67;;;18.10;;
23434;SDS011;11890;45.380;11.028;2022-10-16T01:17:11;39.13;;;18.23;;
23434;SDS011;11890;45.380;11.028;2022-10-16T01:22:22;44.75;;;17.83;;
23434;SDS011;11890;45.380;11.028;2022-10-16T01:24:58;46.55;;;18.88;;
23434;SDS011;11890;45.380;11.028;2022-10-16T01:27:32;35.92;;;18.63;;
23434;SDS011;11890;45.380;11.028;2022-10-16T01:32:52;38.40;;;17.33;;
23434;SDS011;11890;45.380;11.028;2022-10-16T01:35:25;36.33;;;17.20;;
23434;SDS011;11890;45.380;11.028;2022-10-16T01:38:02;36.72;;;17.00;;
23434;SDS011;11890;45.380;11.028;2022-10-16T01:40:37;39.65;;;18.38;;
23434;SDS011;11890;45.380;11.028;2022-10-16T01:43:10;37.55;;;17.52;;
23434;SDS011;11890;45.380;11.028;2022-10-16T01:45:45;41.35;;;16.92;;
23434;SDS011;11890;45.380;11.028;2022-10-16T01:48:13;34.10;;;18.17;;
23434;SDS011;11890;45.380;11.028;2022-10-16T01:50:44;35.45;;;18.15;;
23434;SDS011;11890;45.380;11.028;2022-10-16T01:53:26;41.17;;;18.50;;
23434;SDS011;11890;45.380;11.028;2022-10-16T01:55:54;41.42;;;18.90;;
23434;SDS011;11890;45.380;11.028;2022-10-16T01:58:25;47.00;;;19.83;;
23434;SDS011;11890;45.380;11.028;2022-10-16T02:01:01;39.00;;;19.75;;
23434;SDS011;11890;45.380;11.028;2022-10-16T02:03:31;35.40;;;16.60;;
23434;SDS011;11890;45.380;11.028;2022-10-16T02:08:32;33.15;;;15.48;;
23434;SDS011;11890;45.380;11.028;2022-10-16T02:11:00;36.50;;;17.52;;
23434;SDS011;11890;45.380;11.028;2022-10-16T02:15:59;36.50;;;17.17;;
23434;SDS011;11890;45.380;11.028;2022-10-16T02:18:26;36.90;;;17.88;;
23434;SDS011;11890;45.380;11.028;2022-10-16T02:23:55;40.47;;;18.67;;
23434;SDS011;11890;45.380;11.028;2022-10-16T02:26:51;41.80;;;17.45;;
23434;SDS011;11890;45.380;11.028;2022-10-16T02:29:25;33.95;;;16.05;;
23434;SDS011;11890;45.380;11.028;2022-10-16T02:31:58;36.50;;;17.02;;
23434;SDS011;11890;45.380;11.028;2022-10-16T02:34:30;45.83;;;19.13;;
23434;SDS011;11890;45.380;11.028;2022-10-16T02:36:59;40.40;;;19.10;;
23434;SDS011;11890;45.380;11.028;2022-10-16T02:39:30;38.75;;;16.92;;
23434;SDS011;11890;45.380;11.028;2022-10-16T02:41:58;34.08;;;15.77;;
23434;SDS011;11890;45.380;11.028;2022-10-16T02:44:25;36.40;;;17.25;;
23434;SDS011;11890;45.380;11.028;2022-10-16T02:46:53;38.70;;;17.85;;
23434;SDS011;11890;45.380;11.028;2022-10-16T02:49:20;36.08;;;17.42;;
23434;SDS011;11890;45.380;11.028;2022-10-16T02:51:48;37.05;;;18.25;;
23434;SDS011;11890;45.380;11.028;2022-10-16T02:54:16;32.65;;;17.17;;
23434;SDS011;11890;45.380;11.028;2022-10-16T02:56:43;40.05;;;17.92;;
23434;SDS011;11890;45.380;11.028;2022-10-16T02:59:11;40.90;;;17.15;;
23434;SDS011;11890;45.380;11.028;2022-10-16T03:01:38;39.78;;;18.80;;
23434;SDS011;11890;45.380;11.028;2022-10-16T03:04:05;39.58;;;18.02;;
23434;SDS011;11890;45.380;11.028;2022-10-16T03:06:33;41.65;;;18.65;;
23434;SDS011;11890;45.380;11.028;2022-10-16T03:09:01;35.42;;;17.02;;
23434;SDS011;11890;45.380;11.028;2022-10-16T03:11:28;40.85;;;18.65;;
23434;SDS011;11890;45.380;11.028;2022-10-16T03:13:56;36.13;;;17.52;;
23434;SDS011;11890;45.380;11.028;2022-10-16T03:16:26;37.33;;;17.08;;
23434;SDS011;11890;45.380;11.028;2022-10-16T03:18:53;36.47;;;16.90;;
23434;SDS011;11890;45.380;11.028;2022-10-16T03:21:21;35.88;;;16.33;;
23434;SDS011;11890;45.380;11.028;2022-10-16T03:23:48;37.28;;;17.58;;
23434;SDS011;11890;45.380;11.028;2022-10-16T03:26:16;35.78;;;17.38;;
23434;SDS011;11890;45.380;11.028;2022-10-16T03:28:43;36.22;;;19.20;;
23434;SDS011;11890;45.380;11.028;2022-10-16T03:31:10;38.00;;;17.38;;
23434;SDS011;11890;45.380;11.028;2022-10-16T03:33:39;37.97;;;17.15;;
23434;SDS011;11890;45.380;11.028;2022-10-16T03:36:06;40.33;;;17.40;;
23434;SDS011;11890;45.380;11.028;2022-10-16T03:38:33;40.97;;;17.50;;
23434;SDS011;11890;45.380;11.028;2022-10-16T03:41:01;32.03;;;16.92;;
23434;SDS011;11890;45.380;11.028;2022-10-16T03:43:28;39.13;;;18.52;;
23434;SDS011;11890;45.380;11.028;2022-10-16T03:45:56;39.63;;;18.17;;
23434;SDS011;11890;45.380;11.028;2022-10-16T03:48:23;38.30;;;18.25;;
23434;SDS011;11890;45.380;11.028;2022-10-16T03:50:50;35.92;;;17.15;;
23434;SDS011;11890;45.380;11.028;2022-10-16T03:53:18;39.05;;;18.25;;
23434;SDS011;11890;45.380;11.028;2022-10-16T03:55:45;36.55;;;16.90;;
23434;SDS011;11890;45.380;11.028;2022-10-16T03:58:13;41.53;;;18.83;;
23434;SDS011;11890;45.380;11.028;2022-10-16T04:00:43;41.53;;;18.83;;
23434;SDS011;11890;45.380;11.028;2022-10-16T04:03:14;38.55;;;18.40;;
23434;SDS011;11890;45.380;11.028;2022-10-16T04:05:41;37.72;;;18.55;;
23434;SDS011;11890;45.380;11.028;2022-10-16T04:08:09;45.30;;;19.35;;
23434;SDS011;11890;45.380;11.028;2022-10-16T04:10:36;39.50;;;17.90;;
23434;SDS011;11890;45.380;11.028;2022-10-16T04:13:03;42.33;;;19.92;;
23434;SDS011;11890;45.380;11.028;2022-10-16T04:15:31;41.22;;;19.08;;
23434;SDS011;11890;45.380;11.028;2022-10-16T04:17:58;36.58;;;17.70;;
23434;SDS011;11890;45.380;11.028;2022-10-16T04:20:25;39.92;;;19.02;;
23434;SDS011;11890;45.380;11.028;2022-10-16T04:22:53;44.67;;;18.33;;
23434;SDS011;11890;45.380;11.028;2022-10-16T04:25:20;45.08;;;20.33;;
23434;SDS011;11890;45.380;11.028;2022-10-16T04:27:47;39.58;;;18.13;;
23434;SDS011;11890;45.380;11.028;2022-10-16T04:30:20;40.60;;;18.55;;
23434;SDS011;11890;45.380;11.028;2022-10-16T04:32:51;40.97;;;18.48;;
23434;SDS011;11890;45.380;11.028;2022-10-16T04:35:20;39.50;;;18.35;;
23434;SDS011;11890;45.380;11.028;2022-10-16T04:37:48;38.22;;;18.08;;
23434;SDS011;11890;45.380;11.028;2022-10-16T04:40:18;40.55;;;18.15;;
23434;SDS011;11890;45.380;11.028;2022-10-16T04:42:45;37.28;;;17.98;;
23434;SDS011;11890;45.380;11.028;2022-10-16T04:45:12;38.67;;;19.20;;
23434;SDS011;11890;45.380;11.028;2022-10-16T04:47:43;40.47;;;20.02;;
23434;SDS011;11890;45.380;11.028;2022-10-16T04:50:10;40.38;;;16.75;;
23434;SDS011;11890;45.380;11.028;2022-10-16T04:52:38;39.47;;;18.65;;
23434;SDS011;11890;45.380;11.028;2022-10-16T04:55:05;39.80;;;18.65;;
23434;SDS011;11890;45.380;11.028;2022-10-16T04:57:33;39.00;;;17.48;;
23434;SDS011;11890;45.380;11.028;2022-10-16T05:00:01;40.97;;;17.02;;
23434;SDS011;11890;45.380;11.028;2022-10-16T05:02:29;34.25;;;17.92;;
23434;SDS011;11890;45.380;11.028;2022-10-16T05:04:57;40.30;;;18.52;;
23434;SDS011;11890;45.380;11.028;2022-10-16T05:07:24;37.75;;;18.45;;
23434;SDS011;11890;45.380;11.028;2022-10-16T05:09:52;40.17;;;18.25;;
23434;SDS011;11890;45.380;11.028;2022-10-16T05:12:20;43.13;;;19.20;;
23434;SDS011;11890;45.380;11.028;2022-10-16T05:14:50;37.50;;;18.80;;
23434;SDS011;11890;45.380;11.028;2022-10-16T05:17:17;39.28;;;18.17;;
23434;SDS011;11890;45.380;11.028;2022-10-16T05:19:45;38.15;;;17.52;;
23434;SDS011;11890;45.380;11.028;2022-10-16T05:22:12;37.55;;;18.70;;
23434;SDS011;11890;45.380;11.028;2022-10-16T05:24:39;42.17;;;18.02;;
23434;SDS011;11890;45.380;11.028;2022-10-16T05:27:07;41.38;;;19.52;;
23434;SDS011;11890;45.380;11.028;2022-10-16T05:29:34;41.80;;;18.65;;
23434;SDS011;11890;45.380;11.028;2022-10-16T05:32:02;44.92;;;18.23;;
23434;SDS011;11890;45.380;11.028;2022-10-16T05:34:29;42.13;;;18.23;;
23434;SDS011;11890;45.380;11.028;2022-10-16T05:36:57;39.90;;;17.17;;
23434;SDS011;11890;45.380;11.028;2022-10-16T05:39:24;44.15;;;18.08;;
23434;SDS011;11890;45.380;11.028;2022-10-16T05:41:51;36.88;;;16.83;;
23434;SDS011;11890;45.380;11.028;2022-10-16T05:44:19;36.80;;;17.88;;
23434;SDS011;11890;45.380;11.028;2022-10-16T05:46:47;41.30;;;18.90;;
23434;SDS011;11890;45.380;11.028;2022-10-16T05:49:14;42.45;;;19.13;;
23434;SDS011;11890;45.380;11.028;2022-10-16T05:51:42;42.28;;;18.80;;
23434;SDS011;11890;45.380;11.028;2022-10-16T05:54:09;41.33;;;19.58;;
23434;SDS011;11890;45.380;11.028;2022-10-16T05:56:37;43.53;;;18.70;;
23434;SDS011;11890;45.380;11.028;2022-10-16T05:59:04;38.67;;;17.25;;
23434;SDS011;11890;45.380;11.028;2022-10-16T06:01:32;38.05;;;17.25;;
23434;SDS011;11890;45.380;11.028;2022-10-16T06:04:00;40.95;;;19.63;;
23434;SDS011;11890;45.380;11.028;2022-10-16T06:06:28;38.45;;;18.40;;
23434;SDS011;11890;45.380;11.028;2022-10-16T06:08:56;44.13;;;19.30;;
23434;SDS011;11890;45.380;11.028;2022-10-16T06:11:25;41.17;;;18.58;;
23434;SDS011;11890;45.380;11.028;2022-10-16T06:13:55;38.90;;;18.38;;
23434;SDS011;11890;45.380;11.028;2022-10-16T06:16:29;41.75;;;18.30;;
23434;SDS011;11890;45.380;11.028;2022-10-16T06:18:59;36.78;;;18.95;;
23434;SDS011;11890;45.380;11.028;2022-10-16T06:21:27;44.08;;;17.35;;
23434;SDS011;11890;45.380;11.028;2022-10-16T06:23:56;43.42;;;18.58;;
23434;SDS011;11890;45.380;11.028;2022-10-16T06:26:26;41.28;;;17.92;;
23434;SDS011;11890;45.380;11.028;2022-10-16T06:28:56;41.92;;;19.10;;
23434;SDS011;11890;45.380;11.028;2022-10-16T06:31:26;44.95;;;18.48;;
23434;SDS011;11890;45.380;11.028;2022-10-16T06:33:57;41.03;;;19.00;;
23434;SDS011;11890;45.380;11.028;2022-10-16T06:36:25;45.25;;;19.90;;
23434;SDS011;11890;45.380;11.028;2022-10-16T06:38:52;40.33;;;19.13;;
23434;SDS011;11890;45.380;11.028;2022-10-16T06:41:21;40.45;;;19.45;;
23434;SDS011;11890;45.380;11.028;2022-10-16T06:43:49;43.35;;;19.10;;
23434;SDS011;11890;45.380;11.028;2022-10-16T06:46:18;41.92;;;19.98;;
23434;SDS011;11890;45.380;11.028;2022-10-16T06:48:47;48.75;;;20.80;;
23434;SDS011;11890;45.380;11.028;2022-10-16T06:51:24;42.30;;;21.05;;
23434;SDS011;11890;45.380;11.028;2022-10-16T06:53:53;44.25;;;18.48;;
23434;SDS011;11890;45.380;11.028;2022-10-16T06:56:30;44.45;;;19.85;;
23434;SDS011;11890;45.380;11.028;2022-10-16T06:58:59;45.10;;;19.55;;
23434;SDS011;11890;45.380;11.028;2022-10-16T07:01:27;38.47;;;19.35;;
23434;SDS011;11890;45.380;11.028;2022-10-16T07:03:55;41.17;;;19.27;;
23434;SDS011;11890;45.380;11.028;2022-10-16T07:06:23;42.35;;;20.65;;
23434;SDS011;11890;45.380;11.028;2022-10-16T07:08:52;43.60;;;18.65;;
23434;SDS011;11890;45.380;11.028;2022-10-16T07:11:20;39.63;;;20.10;;
23434;SDS011;11890;45.380;11.028;2022-10-16T07:13:49;43.83;;;20.38;;
23434;SDS011;11890;45.380;11.028;2022-10-16T07:16:23;43.78;;;20.40;;
23434;SDS011;11890;45.380;11.028;2022-10-16T07:18:55;44.63;;;20.33;;
23434;SDS011;11890;45.380;11.028;2022-10-16T07:21:28;48.70;;;21.50;;
23434;SDS011;11890;45.380;11.028;2022-10-16T07:23:57;44.30;;;21.20;;
23434;SDS011;11890;45.380;11.028;2022-10-16T07:26:28;44.05;;;20.08;;
23434;SDS011;11890;45.380;11.028;2022-10-16T07:28:57;41.05;;;19.90;;
23434;SDS011;11890;45.380;11.028;2022-10-16T07:31:26;48.33;;;21.88;;
23434;SDS011;11890;45.380;11.028;2022-10-16T07:33:53;46.40;;;20.48;;
23434;SDS011;11890;45.380;11.028;2022-10-16T07:36:21;41.17;;;20.15;;
23434;SDS011;11890;45.380;11.028;2022-10-16T07:38:48;73.93;;;31.27;;
23434;SDS011;11890;45.380;11.028;2022-10-16T07:41:21;63.90;;;26.83;;
23434;SDS011;11890;45.380;11.028;2022-10-16T07:43:49;46.45;;;21.45;;
23434;SDS011;11890;45.380;11.028;2022-10-16T07:46:18;42.85;;;20.33;;
23434;SDS011;11890;45.380;11.028;2022-10-16T07:48:46;47.67;;;20.52;;
23434;SDS011;11890;45.380;11.028;2022-10-16T07:51:16;45.67;;;22.10;;
23434;SDS011;11890;45.380;11.028;2022-10-16T07:53:50;43.55;;;21.15;;
23434;SDS011;11890;45.380;11.028;2022-10-16T07:56:19;41.97;;;20.17;;
23434;SDS011;11890;45.380;11.028;2022-10-16T07:58:47;45.55;;;21.85;;
23434;SDS011;11890;45.380;11.028;2022-10-16T08:01:17;49.53;;;22.67;;
23434;SDS011;11890;45.380;11.028;2022-10-16T08:03:47;43.90;;;20.27;;
23434;SDS011;11890;45.380;11.028;2022-10-16T08:06:16;47.35;;;20.95;;
23434;SDS011;11890;45.380;11.028;2022-10-16T08:08:54;46.47;;;21.63;;
23434;SDS011;11890;45.380;11.028;2022-10-16T08:11:22;54.72;;;22.10;;
23434;SDS011;11890;45.380;11.028;2022-10-16T08:13:50;45.42;;;21.50;;
23434;SDS011;11890;45.380;11.028;2022-10-16T08:16:17;47.42;;;20.52;;
23434;SDS011;11890;45.380;11.028;2022-10-16T08:18:45;53.17;;;21.95;;
23434;SDS011;11890;45.380;11.028;2022-10-16T08:21:14;43.80;;;20.80;;
23434;SDS011;11890;45.380;11.028;2022-10-16T08:23:47;43.67;;;20.70;;
23434;SDS011;11890;45.380;11.028;2022-10-16T08:26:24;41.45;;;21.15;;
23434;SDS011;11890;45.380;11.028;2022-10-16T08:28:55;49.35;;;22.75;;
23434;SDS011;11890;45.380;11.028;2022-10-16T08:31:23;53.83;;;23.88;;
23434;SDS011;11890;45.380;11.028;2022-10-16T08:33:50;49.30;;;23.05;;
23434;SDS011;11890;45.380;11.028;2022-10-16T08:36:22;50.28;;;23.90;;
23434;SDS011;11890;45.380;11.028;2022-10-16T08:38:50;49.60;;;23.27;;
23434;SDS011;11890;45.380;11.028;2022-10-16T08:46:45;52.10;;;23.90;;
23434;SDS011;11890;45.380;11.028;2022-10-16T08:49:23;57.50;;;23.63;;
23434;SDS011;11890;45.380;11.028;2022-10-16T08:51:51;56.08;;;24.00;;
23434;SDS011;11890;45.380;11.028;2022-10-16T08:54:32;60.65;;;24.85;;
23434;SDS011;11890;45.380;11.028;2022-10-16T08:57:09;53.53;;;24.80;;
23434;SDS011;11890;45.380;11.028;2022-10-16T08:59:44;51.88;;;23.88;;
23434;SDS011;11890;45.380;11.028;2022-10-16T09:07:56;58.17;;;23.35;;
23434;SDS011;11890;45.380;11.028;2022-10-16T09:10:49;51.97;;;24.27;;
23434;SDS011;11890;45.380;11.028;2022-10-16T09:13:40;55.42;;;23.67;;
23434;SDS011;11890;45.380;11.028;2022-10-16T09:16:29;63.05;;;24.55;;
23434;SDS011;11890;45.380;11.028;2022-10-16T09:21:53;56.03;;;24.33;;
23434;SDS011;11890;45.380;11.028;2022-10-16T09:24:24;58.35;;;24.75;;
23434;SDS011;11890;45.380;11.028;2022-10-16T09:26:54;54.97;;;25.27;;
23434;SDS011;11890;45.380;11.028;2022-10-16T09:29:22;54.42;;;25.40;;
23434;SDS011;11890;45.380;11.028;2022-10-16T09:31:52;52.92;;;25.83;;
23434;SDS011;11890;45.380;11.028;2022-10-16T09:34:26;61.50;;;26.83;;
23434;SDS011;11890;45.380;11.028;2022-10-16T09:36:59;52.03;;;25.42;;
23434;SDS011;11890;45.380;11.028;2022-10-16T09:42:20;52.38;;;23.30;;
23434;SDS011;11890;45.380;11.028;2022-10-16T09:44:55;47.53;;;22.42;;
23434;SDS011;11890;45.380;11.028;2022-10-16T09:47:24;54.75;;;23.98;;
23434;SDS011;11890;45.380;11.028;2022-10-16T09:50:02;45.83;;;23.48;;
23434;SDS011;11890;45.380;11.028;2022-10-16T09:52:33;50.70;;;23.45;;
23434;SDS011;11890;45.380;11.028;2022-10-16T09:55:01;52.13;;;22.88;;
23434;SDS011;11890;45.380;11.028;2022-10-16T09:57:48;40.08;;;21.85;;
23434;SDS011;11890;45.380;11.028;2022-10-16T10:00:21;42.47;;;21.17;;
23434;SDS011;11890;45.380;11.028;2022-10-16T10:02:49;45.03;;;20.23;;
23434;SDS011;11890;45.380;11.028;2022-10-16T10:05:18;45.63;;;21.42;;
23434;SDS011;11890;45.380;11.028;2022-10-16T10:07:58;43.85;;;21.38;;
23434;SDS011;11890;45.380;11.028;2022-10-16T10:10:30;46.45;;;22.23;;
23434;SDS011;11890;45.380;11.028;2022-10-16T10:12:59;45.88;;;21.27;;
23434;SDS011;11890;45.380;11.028;2022-10-16T10:15:29;39.65;;;19.27;;
23434;SDS011;11890;45.380;11.028;2022-10-16T10:18:01;41.13;;;20.20;;
23434;SDS011;11890;45.380;11.028;2022-10-16T10:20:30;36.58;;;18.83;;
23434;SDS011;11890;45.380;11.028;2022-10-16T10:23:23;36.95;;;17.63;;
23434;SDS011;11890;45.380;11.028;2022-10-16T10:25:58;31.95;;;15.77;;
23434;SDS011;11890;45.380;11.028;2022-10-16T10:34:32;34.72;;;18.08;;
23434;SDS011;11890;45.380;11.028;2022-10-16T10:40:02;32.33;;;15.80;;
23434;SDS011;11890;45.380;11.028;2022-10-16T10:45:26;35.55;;;17.27;;
23434;SDS011;11890;45.380;11.028;2022-10-16T10:50:49;30.95;;;16.75;;
23434;SDS011;11890;45.380;11.028;2022-10-16T11:02:19;30.65;;;16.48;;
23434;SDS011;11890;45.380;11.028;2022-10-16T11:07:36;32.22;;;15.88;;
23434;SDS011;11890;45.380;11.028;2022-10-16T11:10:13;28.95;;;16.00;;
23434;SDS011;11890;45.380;11.028;2022-10-16T11:12:47;30.45;;;14.95;;
23434;SDS011;11890;45.380;11.028;2022-10-16T11:15:25;26.83;;;15.30;;
23434;SDS011;11890;45.380;11.028;2022-10-16T11:18:08;26.45;;;14.40;;
23434;SDS011;11890;45.380;11.028;2022-10-16T11:23:20;29.35;;;14.48;;
23434;SDS011;11890;45.380;11.028;2022-10-16T11:26:00;34.15;;;17.92;;
23434;SDS011;11890;45.380;11.028;2022-10-16T11:28:34;28.02;;;14.98;;
23434;SDS011;11890;45.380;11.028;2022-10-16T11:31:19;30.45;;;16.40;;
23434;SDS011;11890;45.380;11.028;2022-10-16T11:36:45;32.08;;;15.43;;
23434;SDS011;11890;45.380;11.028;2022-10-16T11:39:29;29.92;;;14.77;;
23434;SDS011;11890;45.380;11.028;2022-10-16T11:47:35;30.77;;;16.45;;
23434;SDS011;11890;45.380;11.028;2022-10-16T11:50:27;30.88;;;17.48;;
23434;SDS011;11890;45.380;11.028;2022-10-16T11:53:01;34.95;;;17.08;;
23434;SDS011;11890;45.380;11.028;2022-10-16T11:55:34;34.10;;;17.45;;
23434;SDS011;11890;45.380;11.028;2022-10-16T12:00:45;27.85;;;16.05;;
23434;SDS011;11890;45.380;11.028;2022-10-16T12:03:39;30.65;;;15.73;;
23434;SDS011;11890;45.380;11.028;2022-10-16T12:06:18;33.42;;;17.20;;
23434;SDS011;11890;45.380;11.028;2022-10-16T12:08:52;31.23;;;15.80;;
23434;SDS011;11890;45.380;11.028;2022-10-16T12:11:30;26.45;;;15.70;;
23434;SDS011;11890;45.380;11.028;2022-10-16T12:14:33;33.63;;;17.50;;
23434;SDS011;11890;45.380;11.028;2022-10-16T12:19:27;33.17;;;17.85;;
23434;SDS011;11890;45.380;11.028;2022-10-16T12:21:57;35.65;;;19.35;;
23434;SDS011;11890;45.380;11.028;2022-10-16T12:24:33;36.00;;;18.90;;
23434;SDS011;11890;45.380;11.028;2022-10-16T12:29:53;39.33;;;18.45;;
23434;SDS011;11890;45.380;11.028;2022-10-16T12:32:36;38.05;;;18.08;;
23434;SDS011;11890;45.380;11.028;2022-10-16T12:35:22;35.45;;;18.42;;
23434;SDS011;11890;45.380;11.028;2022-10-16T12:38:04;33.45;;;17.05;;
23434;SDS011;11890;45.380;11.028;2022-10-16T12:40:57;36.50;;;17.52;;
23434;SDS011;11890;45.380;11.028;2022-10-16T12:48:36;40.08;;;18.08;;
23434;SDS011;11890;45.380;11.028;2022-10-16T12:51:25;34.58;;;17.00;;
23434;SDS011;11890;45.380;11.028;2022-10-16T13:01:59;33.75;;;18.95;;
23434;SDS011;11890;45.380;11.028;2022-10-16T13:10:15;38.97;;;18.20;;
23434;SDS011;11890;45.380;11.028;2022-10-16T13:12:54;34.78;;;17.90;;
23434;SDS011;11890;45.380;11.028;2022-10-16T13:18:27;35.33;;;17.08;;
23434;SDS011;11890;45.380;11.028;2022-10-16T13:29:32;38.00;;;18.17;;
23434;SDS011;11890;45.380;11.028;2022-10-16T13:32:01;36.78;;;17.45;;
23434;SDS011;11890;45.380;11.028;2022-10-16T13:34:42;36.38;;;18.85;;
23434;SDS011;11890;45.380;11.028;2022-10-16T13:37:20;33.47;;;17.77;;
23434;SDS011;11890;45.380;11.028;2022-10-16T13:40:01;32.95;;;17.15;;
23434;SDS011;11890;45.380;11.028;2022-10-16T13:42:39;33.20;;;17.13;;
23434;SDS011;11890;45.380;11.028;2022-10-16T13:45:17;33.88;;;16.98;;
23434;SDS011;11890;45.380;11.028;2022-10-16T13:47:45;34.45;;;17.17;;
23434;SDS011;11890;45.380;11.028;2022-10-16T13:50:14;36.85;;;17.02;;
23434;SDS011;11890;45.380;11.028;2022-10-16T13:52:44;32.80;;;16.88;;
23434;SDS011;11890;45.380;11.028;2022-10-16T13:55:12;32.35;;;17.27;;
23434;SDS011;11890;45.380;11.028;2022-10-16T13:57:41;37.20;;;18.42;;
23434;SDS011;11890;45.380;11.028;2022-10-16T14:03:18;32.38;;;16.08;;
23434;SDS011;11890;45.380;11.028;2022-10-16T14:05:45;39.45;;;17.35;;
23434;SDS011;11890;45.380;11.028;2022-10-16T14:08:18;36.35;;;16.50;;
23434;SDS011;11890;45.380;11.028;2022-10-16T14:10:47;32.38;;;17.52;;
23434;SDS011;11890;45.380;11.028;2022-10-16T14:13:17;30.50;;;16.30;;
23434;SDS011;11890;45.380;11.028;2022-10-16T14:16:07;32.13;;;17.35;;
23434;SDS011;11890;45.380;11.028;2022-10-16T14:18:37;33.03;;;17.10;;
23434;SDS011;11890;45.380;11.028;2022-10-16T14:21:07;37.10;;;18.25;;
23434;SDS011;11890;45.380;11.028;2022-10-16T14:23:41;35.22;;;17.35;;
23434;SDS011;11890;45.380;11.028;2022-10-16T14:28:37;36.75;;;15.57;;
23434;SDS011;11890;45.380;11.028;2022-10-16T14:33:46;33.85;;;15.65;;
23434;SDS011;11890;45.380;11.028;2022-10-16T14:36:14;31.88;;;16.65;;
23434;SDS011;11890;45.380;11.028;2022-10-16T14:38:49;32.63;;;16.35;;
23434;SDS011;11890;45.380;11.028;2022-10-16T14:41:25;34.08;;;15.43;;
23434;SDS011;11890;45.380;11.028;2022-10-16T14:43:54;30.35;;;15.20;;
23434;SDS011;11890;45.380;11.028;2022-10-16T14:46:34;28.55;;;15.55;;
23434;SDS011;11890;45.380;11.028;2022-10-16T14:49:04;30.25;;;15.07;;
23434;SDS011;11890;45.380;11.028;2022-10-16T14:51:36;33.53;;;15.85;;
23434;SDS011;11890;45.380;11.028;2022-10-16T14:54:05;38.25;;;15.02;;
23434;SDS011;11890;45.380;11.028;2022-10-16T14:56:56;25.83;;;14.50;;
23434;SDS011;11890;45.380;11.028;2022-10-16T14:59:32;33.90;;;15.25;;
23434;SDS011;11890;45.380;11.028;2022-10-16T15:02:09;29.02;;;13.77;;
23434;SDS011;11890;45.380;11.028;2022-10-16T15:04:44;32.75;;;15.73;;
23434;SDS011;11890;45.380;11.028;2022-10-16T15:07:11;29.80;;;15.35;;
23434;SDS011;11890;45.380;11.028;2022-10-16T15:09:39;29.10;;;15.20;;
23434;SDS011;11890;45.380;11.028;2022-10-16T15:12:10;33.20;;;16.10;;
23434;SDS011;11890;45.380;11.028;2022-10-16T15:14:38;41.45;;;17.15;;
23434;SDS011;11890;45.380;11.028;2022-10-16T15:17:07;33.00;;;16.20;;
23434;SDS011;11890;45.380;11.028;2022-10-16T15:19:38;32.60;;;16.63;;
23434;SDS011;11890;45.380;11.028;2022-10-16T15:22:05;29.48;;;16.05;;
23434;SDS011;11890;45.380;11.028;2022-10-16T15:24:32;33.80;;;16.70;;
23434;SDS011;11890;45.380;11.028;2022-10-16T15:27:00;35.53;;;16.63;;
23434;SDS011;11890;45.380;11.028;2022-10-16T15:29:27;35.55;;;17.85;;
23434;SDS011;11890;45.380;11.028;2022-10-16T15:31:54;32.30;;;15.68;;
23434;SDS011;11890;45.380;11.028;2022-10-16T15:34:22;32.15;;;15.43;;
23434;SDS011;11890;45.380;11.028;2022-10-16T15:36:49;31.00;;;16.38;;
23434;SDS011;11890;45.380;11.028;2022-10-16T15:39:18;33.15;;;16.85;;
23434;SDS011;11890;45.380;11.028;2022-10-16T15:41:46;36.45;;;18.05;;
23434;SDS011;11890;45.380;11.028;2022-10-16T15:44:17;36.15;;;15.57;;
23434;SDS011;11890;45.380;11.028;2022-10-16T15:46:45;33.00;;;14.30;;
23434;SDS011;11890;45.380;11.028;2022-10-16T15:49:16;33.15;;;15.73;;
23434;SDS011;11890;45.380;11.028;2022-10-16T15:51:44;34.83;;;16.45;;
23434;SDS011;11890;45.380;11.028;2022-10-16T15:54:12;30.70;;;15.38;;
23434;SDS011;11890;45.380;11.028;2022-10-16T15:56:40;29.52;;;15.07;;
23434;SDS011;11890;45.380;11.028;2022-10-16T15:59:07;30.70;;;15.40;;
23434;SDS011;11890;45.380;11.028;2022-10-16T16:01:35;33.08;;;15.63;;
23434;SDS011;11890;45.380;11.028;2022-10-16T16:04:02;32.38;;;16.20;;
23434;SDS011;11890;45.380;11.028;2022-10-16T16:06:45;31.00;;;16.77;;
23434;SDS011;11890;45.380;11.028;2022-10-16T16:09:13;34.35;;;15.93;;
23434;SDS011;11890;45.380;11.028;2022-10-16T16:11:41;34.00;;;16.52;;
23434;SDS011;11890;45.380;11.028;2022-10-16T16:14:12;33.78;;;15.75;;
23434;SDS011;11890;45.380;11.028;2022-10-16T16:16:40;35.22;;;16.83;;
23434;SDS011;11890;45.380;11.028;2022-10-16T16:19:08;31.38;;;15.65;;
23434;SDS011;11890;45.380;11.028;2022-10-16T16:21:38;37.85;;;18.08;;
23434;SDS011;11890;45.380;11.028;2022-10-16T16:24:05;36.50;;;15.85;;
23434;SDS011;11890;45.380;11.028;2022-10-16T16:26:35;29.95;;;16.38;;
23434;SDS011;11890;45.380;11.028;2022-10-16T16:29:06;42.55;;;17.95;;
23434;SDS011;11890;45.380;11.028;2022-10-16T16:31:34;32.55;;;16.73;;
23434;SDS011;11890;45.380;11.028;2022-10-16T16:34:01;41.22;;;17.25;;
23434;SDS011;11890;45.380;11.028;2022-10-16T16:36:32;37.38;;;16.10;;